createdAt,value
2022-12-03T00:07:22.882Z,167770.82
2022-12-03T00:23:05.519Z,167770.83
2022-12-03T00:38:48.191Z,167770.87
2022-12-03T00:54:31.232Z,167770.78
2022-12-03T01:10:14.390Z,167770.73
2022-12-03T01:25:57.127Z,167770.73
2022-12-03T01:41:39.715Z,167770.73
2022-12-03T01:57:22.177Z,167770.73
2022-12-03T02:13:04.776Z,167770.68
2022-12-03T02:28:47.318Z,167770.68
2022-12-03T02:44:29.775Z,167770.66
2022-12-03T03:00:12.738Z,167770.66
2022-12-03T03:15:55.830Z,167770.65
2022-12-03T03:31:38.131Z,167770.66
2022-12-03T03:47:21.297Z,167770.7
2022-12-03T04:03:04.136Z,167770.64
2022-12-03T04:18:47.353Z,167770.63
2022-12-03T04:34:29.861Z,167770.51
2022-12-03T04:50:12.676Z,167770.46
2022-12-03T05:05:55.824Z,167770.44
2022-12-03T05:21:38.090Z,167770.38
2022-12-03T05:37:20.921Z,167770.34
2022-12-03T05:53:04.140Z,167770.28
2022-12-03T06:08:46.529Z,167770.2
2022-12-03T06:24:28.683Z,167770.15
2022-12-03T06:40:10.938Z,167770.16
2022-12-03T06:55:53.975Z,167770.13
2022-12-03T07:11:36.408Z,167770.12
2022-12-03T07:27:19.232Z,167770.13
2022-12-03T07:43:02.267Z,167770.47
2022-12-03T07:58:44.680Z,167770.73
2022-12-03T08:14:27.794Z,167770.48
2022-12-03T08:30:10.006Z,167770.47
2022-12-03T08:45:53.077Z,167770.48
2022-12-03T09:01:35.720Z,167770.7
2022-12-03T09:17:18.638Z,167771.08
2022-12-03T09:33:01.646Z,167771.24
2022-12-03T09:48:44.190Z,167771.05
2022-12-03T10:04:27.035Z,167771.01
2022-12-03T10:20:09.738Z,167771.02
2022-12-03T10:35:52.472Z,167770.97
2022-12-03T10:51:35.057Z,167771.06
2022-12-03T11:07:18.166Z,167771.23
2022-12-03T11:23:01.251Z,167771.36
2022-12-03T11:38:44.185Z,167771.41
2022-12-03T11:54:27.239Z,167771.36
2022-12-03T12:10:10.128Z,167771.3
2022-12-03T12:25:53.156Z,167771.29
2022-12-03T12:41:35.446Z,167771.25
2022-12-03T12:57:18.177Z,167771.16
2022-12-03T13:13:01.305Z,167771.15
2022-12-03T13:28:44.355Z,167771.15
2022-12-03T13:44:26.603Z,167771.07
2022-12-03T14:15:51.731Z,167770.87
2022-12-03T14:31:34.849Z,167770.84
2022-12-03T14:47:17.026Z,167770.85
2022-12-03T15:02:59.780Z,167770.79
2022-12-03T15:18:41.894Z,167770.81
2022-12-03T15:34:24.413Z,167770.84
2022-12-03T15:50:07.410Z,167770.87
2022-12-03T16:05:50.302Z,167770.91
2022-12-03T16:21:33.284Z,167770.97
2022-12-03T16:37:16.244Z,167771
2022-12-03T16:52:58.888Z,167770.97
2022-12-03T17:08:42.000Z,167770.99
2022-12-03T17:24:25.323Z,167771
2022-12-03T17:25:12.695Z,167771.2
2022-12-03T17:40:55.464Z,167771.06
2022-12-03T17:56:38.032Z,167771.08
2022-12-03T18:12:21.048Z,167771.12
2022-12-03T18:28:04.008Z,167771.11
2022-12-03T18:43:46.690Z,167771.14
2022-12-03T18:59:29.123Z,167771.16
2022-12-03T19:15:11.863Z,167771.17
2022-12-03T19:30:54.699Z,167771.19
2022-12-03T19:46:37.599Z,167771.21
2022-12-03T20:02:20.287Z,167771.24
2022-12-03T20:18:03.354Z,167771.27
2022-12-03T20:33:46.141Z,167771.3
2022-12-03T20:49:28.899Z,167771.3
2022-12-03T21:05:11.284Z,167771.36
2022-12-03T21:20:54.160Z,167771.39
2022-12-03T21:36:36.647Z,167771.45
2022-12-03T21:52:19.213Z,167771.46
2022-12-03T22:08:01.860Z,167771.47
2022-12-03T22:23:44.279Z,167771.5
2022-12-03T22:39:26.677Z,167771.47
2022-12-03T22:55:09.454Z,167771.49
2022-12-03T23:10:51.781Z,167771.48
2022-12-03T23:26:34.613Z,167771.5
2022-12-03T23:42:16.960Z,167771.51
2022-12-03T23:57:59.592Z,167771.52
